Time;durP1;ratioP1;P1;durP2;ratioP2;P2;SDS_P1;SDS_P2;PMS_P1;PMS_P2;Temp;Humidity;BMP_temperature;BMP_pressure;BME280_temperature;BME280_humidity;BME280_pressure;Samples;Min_cycle;Max_cycle;Signal;HPM_P1;HPM_P2
2022/10/07 04:01:22;;;;;;;6.20;3.97;;;12.80;99.90;;;;;;5526929;23;20494;-73
2022/10/07 04:03:49;;;;;;;8.57;4.00;;;12.90;99.90;;;;;;4930947;29;20458;-73
2022/10/07 04:06:15;;;;;;;8.33;4.40;;;12.90;99.90;;;;;;4930091;29;20481;-73
2022/10/07 04:08:43;;;;;;;8.53;4.10;;;12.80;99.90;;;;;;4929823;29;20463;-73
2022/10/07 04:11:10;;;;;;;6.63;4.50;;;12.80;99.90;;;;;;4922835;29;20475;-73
2022/10/07 04:13:38;;;;;;;8.50;5.23;;;12.80;99.90;;;;;;4911575;29;20459;-73
2022/10/07 04:16:06;;;;;;;6.10;4.50;;;12.70;99.90;;;;;;4911613;29;20469;-72
2022/10/07 04:18:34;;;;;;;10.93;4.73;;;12.80;99.90;;;;;;4911804;29;20554;-73
2022/10/07 04:21:01;;;;;;;9.20;4.83;;;12.80;99.90;;;;;;4911517;29;20487;-72
2022/10/07 04:23:28;;;;;;;7.43;4.30;;;12.80;99.90;;;;;;4911564;29;20464;-73
2022/10/07 04:25:55;;;;;;;8.47;4.37;;;12.80;99.90;;;;;;4911083;29;20466;-72
2022/10/07 04:28:24;;;;;;;7.73;4.60;;;12.80;99.90;;;;;;4911599;29;20491;-72
2022/10/07 04:30:52;;;;;;;9.03;4.70;;;12.80;99.90;;;;;;4911714;29;20509;-69
2022/10/07 04:33:21;;;;;;;8.00;4.97;;;12.80;99.90;;;;;;4911424;29;20475;-70
2022/10/07 04:35:50;;;;;;;10.20;4.73;;;12.80;99.90;;;;;;4910639;29;20982;-70
2022/10/07 04:38:18;;;;;;;10.23;5.17;;;12.80;99.90;;;;;;4911500;29;20464;-74
2022/10/07 04:40:46;;;;;;;12.70;5.63;;;12.80;99.90;;;;;;4911388;29;20510;-73
2022/10/07 04:43:18;;;;;;;7.70;4.23;;;12.80;99.90;;;;;;4911400;29;20520;-74
2022/10/07 04:45:46;;;;;;;8.30;4.80;;;12.90;99.90;;;;;;4910827;29;20443;-74
2022/10/07 04:48:13;;;;;;;4.83;4.27;;;12.90;99.90;;;;;;4911105;29;20473;-74
2022/10/07 04:50:40;;;;;;;8.37;5.20;;;12.90;99.90;;;;;;4911280;29;20486;-75
2022/10/07 04:53:09;;;;;;;7.40;5.40;;;12.90;99.90;;;;;;4911367;29;20467;-75
2022/10/07 04:55:37;;;;;;;11.30;5.97;;;13.00;99.90;;;;;;4909430;29;20494;-75
2022/10/07 04:58:04;;;;;;;10.13;6.33;;;13.00;99.90;;;;;;4910144;29;20518;-75
2022/10/07 05:00:31;;;;;;;9.30;5.00;;;12.90;99.90;;;;;;4909817;29;20498;-75
2022/10/07 05:02:58;;;;;;;15.37;6.53;;;12.90;99.90;;;;;;4910500;29;20445;-74
2022/10/07 05:05:26;;;;;;;11.23;5.73;;;13.00;99.90;;;;;;4907613;29;20466;-74
2022/10/07 05:07:54;;;;;;;12.27;5.93;;;13.00;99.90;;;;;;4908665;29;20474;-75
2022/10/07 05:10:22;;;;;;;9.30;5.60;;;12.90;99.90;;;;;;4909865;29;20525;-75
2022/10/07 05:12:49;;;;;;;11.83;5.10;;;12.90;99.90;;;;;;4909559;29;20471;-76
2022/10/07 05:15:16;;;;;;;9.50;5.27;;;12.90;99.90;;;;;;4909526;29;20466;-75
2022/10/07 05:17:43;;;;;;;9.47;5.77;;;12.90;99.90;;;;;;4910680;29;20455;-75
2022/10/07 05:20:11;;;;;;;11.10;5.20;;;12.90;99.90;;;;;;4910068;29;20505;-76
2022/10/07 05:22:38;;;;;;;9.23;5.70;;;12.90;99.90;;;;;;4910921;29;20463;-75
2022/10/07 05:25:06;;;;;;;9.43;5.53;;;13.00;99.90;;;;;;4909790;29;21257;-76
2022/10/07 05:27:34;;;;;;;13.40;6.00;;;12.90;99.90;;;;;;4910415;29;20467;-75
2022/10/07 05:30:01;;;;;;;10.27;5.17;;;12.90;99.90;;;;;;4910698;29;20511;-75
2022/10/07 05:32:27;;;;;;;8.50;5.13;;;12.90;99.90;;;;;;4910184;29;20494;-75
2022/10/07 05:34:55;;;;;;;10.27;5.83;;;13.00;99.90;;;;;;4909967;29;20463;-75
2022/10/07 05:37:22;;;;;;;8.50;4.43;;;12.90;99.90;;;;;;4910557;29;20459;-75
2022/10/07 05:39:49;;;;;;;8.20;5.27;;;13.00;99.90;;;;;;4910359;29;20506;-75
2022/10/07 05:42:15;;;;;;;12.43;5.83;;;13.00;99.90;;;;;;4910211;29;20494;-76
2022/10/07 05:44:45;;;;;;;7.03;5.20;;;13.00;99.90;;;;;;4909816;29;20470;-75
2022/10/07 05:47:12;;;;;;;11.57;5.83;;;13.00;99.90;;;;;;4910457;29;20498;-75
2022/10/07 05:49:40;;;;;;;10.63;5.33;;;13.10;99.90;;;;;;4910095;29;20546;-75
2022/10/07 05:52:07;;;;;;;8.47;5.10;;;13.00;99.90;;;;;;4909644;29;20483;-75
2022/10/07 05:54:33;;;;;;;12.47;4.60;;;13.10;99.90;;;;;;4909603;29;20489;-75
2022/10/07 05:57:00;;;;;;;11.20;5.70;;;13.10;99.90;;;;;;4910373;29;20467;-75
2022/10/07 05:59:27;;;;;;;9.57;5.37;;;13.10;99.90;;;;;;4909767;29;20506;-74
2022/10/07 06:01:56;;;;;;;13.97;6.00;;;13.10;99.90;;;;;;4909876;29;20675;-74
2022/10/07 06:04:23;;;;;;;10.97;5.10;;;13.20;99.90;;;;;;4909631;29;20491;-74
2022/10/07 06:06:49;;;;;;;8.73;5.93;;;13.10;99.90;;;;;;4910162;29;20463;-74
2022/10/07 06:14:44;;;;;;;13.20;5.23;;;13.20;99.90;;;;;;4909237;29;20431;-74
2022/10/07 06:17:13;;;;;;;11.47;5.20;;;13.20;99.90;;;;;;4909697;29;21041;-75
2022/10/07 06:19:39;;;;;;;11.77;5.20;;;13.20;99.90;;;;;;4909657;29;21015;-75
2022/10/07 06:22:06;;;;;;;10.83;4.97;;;13.20;99.90;;;;;;4909698;29;21003;-74
2022/10/07 06:24:34;;;;;;;11.47;5.20;;;13.20;99.90;;;;;;4908799;29;20460;-75
2022/10/07 06:27:00;;;;;;;8.47;4.77;;;13.20;99.90;;;;;;4909398;29;20502;-75
2022/10/07 06:29:27;;;;;;;7.10;5.10;;;13.30;99.90;;;;;;4909864;29;20463;-75
2022/10/07 06:31:54;;;;;;;13.70;6.70;;;13.30;99.90;;;;;;4908763;29;20479;-75
2022/10/07 06:34:22;;;;;;;11.93;6.03;;;13.30;99.90;;;;;;4908227;29;20463;-75
2022/10/07 06:36:49;;;;;;;12.93;6.30;;;13.30;99.90;;;;;;4908707;29;20463;-74
2022/10/07 06:39:16;;;;;;;8.83;6.10;;;13.30;99.90;;;;;;4909371;29;20831;-75
2022/10/07 06:41:43;;;;;;;10.67;6.50;;;13.40;99.90;;;;;;4908984;29;20999;-75
2022/10/07 06:44:10;;;;;;;10.10;5.80;;;13.40;99.90;;;;;;4908538;29;20804;-75
2022/10/07 06:46:37;;;;;;;26.33;6.53;;;13.40;99.90;;;;;;4909008;29;20838;-75
2022/10/07 06:49:03;;;;;;;9.13;5.23;;;13.40;99.90;;;;;;4909311;29;20459;-74
2022/10/07 06:51:31;;;;;;;13.07;6.00;;;13.40;99.90;;;;;;4908262;29;20603;-74
2022/10/07 06:53:58;;;;;;;12.40;5.80;;;13.40;99.90;;;;;;4908389;29;20470;-75
2022/10/07 06:56:25;;;;;;;11.20;5.40;;;13.40;99.90;;;;;;4909156;29;20459;-75
2022/10/07 06:58:52;;;;;;;14.70;5.87;;;13.50;99.90;;;;;;4909324;29;20459;-74
2022/10/07 07:01:19;;;;;;;11.87;6.10;;;13.50;99.90;;;;;;4908497;29;20511;-74
2022/10/07 07:03:48;;;;;;;6.93;5.57;;;13.60;99.90;;;;;;4908853;29;20956;-74
2022/10/07 07:06:15;;;;;;;9.20;5.77;;;13.60;99.90;;;;;;4908665;29;20482;-74
2022/10/07 07:08:44;;;;;;;11.80;5.37;;;13.60;99.90;;;;;;4908978;29;21292;-74
2022/10/07 07:13:58;;;;;;;8.03;5.37;;;13.60;99.90;;;;;;4907273;29;20822;-75
2022/10/07 07:16:25;;;;;;;7.13;5.77;;;13.60;99.90;;;;;;4908005;29;20463;-75
2022/10/07 07:18:53;;;;;;;8.03;5.30;;;13.70;99.90;;;;;;4908938;29;20474;-75
2022/10/07 07:21:20;;;;;;;8.57;5.30;;;13.70;99.90;;;;;;4908700;29;20988;-74
2022/10/07 07:23:48;;;;;;;10.67;5.50;;;13.70;99.90;;;;;;4908569;29;20466;-75
2022/10/07 07:26:15;;;;;;;7.83;5.20;;;13.80;99.90;;;;;;4908184;29;20461;-75
2022/10/07 07:28:42;;;;;;;6.10;4.50;;;13.80;99.90;;;;;;4908619;29;20915;-74
2022/10/07 07:31:11;;;;;;;8.97;5.70;;;13.90;99.90;;;;;;4908497;29;20857;-75
2022/10/07 07:33:39;;;;;;;9.60;5.57;;;13.90;99.90;;;;;;4908903;29;20570;-74
2022/10/07 07:36:15;;;;;;;8.50;5.23;;;13.90;99.90;;;;;;4908081;29;20474;-74
2022/10/07 07:38:42;;;;;;;11.50;5.10;;;14.00;99.90;;;;;;4908937;29;21361;-75
2022/10/07 07:41:10;;;;;;;7.70;4.40;;;14.00;99.90;;;;;;4909338;29;20502;-76
2022/10/07 07:43:38;;;;;;;14.90;4.90;;;14.10;99.90;;;;;;4912049;29;20467;-74
2022/10/07 07:46:04;;;;;;;6.97;5.10;;;14.10;99.90;;;;;;4910958;29;20470;-74
2022/10/07 07:48:31;;;;;;;8.13;4.70;;;14.20;99.90;;;;;;4911499;29;20489;-75
2022/10/07 07:50:59;;;;;;;16.53;6.03;;;14.20;99.90;;;;;;4911365;29;20915;-74
2022/10/07 07:53:26;;;;;;;11.23;5.50;;;14.20;99.90;;;;;;4911498;29;20466;-74
2022/10/07 07:55:54;;;;;;;12.17;4.53;;;14.30;99.90;;;;;;4910732;29;20826;-75
2022/10/07 07:58:27;;;;;;;9.60;5.03;;;14.30;99.90;;;;;;4911368;29;20459;-74
2022/10/07 08:01:01;;;;;;;6.73;3.93;;;14.40;99.90;;;;;;4912068;29;20514;-75
2022/10/07 08:03:28;;;;;;;4.77;3.97;;;14.40;99.90;;;;;;4911897;29;20459;-75
2022/10/07 08:05:55;;;;;;;10.43;4.30;;;14.40;99.90;;;;;;4911365;29;20482;-74
2022/10/07 08:08:22;;;;;;;6.93;3.93;;;14.50;99.90;;;;;;4911657;29;20466;-75
2022/10/07 08:10:49;;;;;;;4.20;3.80;;;14.60;99.90;;;;;;4911338;29;20786;-75
2022/10/07 08:13:16;;;;;;;7.97;4.13;;;14.60;99.90;;;;;;4911349;29;20968;-74
2022/10/07 08:15:44;;;;;;;7.93;4.10;;;14.70;99.90;;;;;;4911122;29;20455;-74
2022/10/07 08:18:10;;;;;;;8.10;4.57;;;14.80;99.90;;;;;;4911316;29;20466;-74
2022/10/07 08:20:37;;;;;;;6.40;3.63;;;14.80;99.90;;;;;;4910961;29;20502;-75
2022/10/07 08:23:04;;;;;;;7.10;4.40;;;15.00;99.90;;;;;;4911399;29;20470;-75
2022/10/07 08:25:31;;;;;;;6.60;4.10;;;15.00;99.90;;;;;;4910664;29;20467;-74
2022/10/07 08:27:58;;;;;;;8.77;4.13;;;15.00;99.90;;;;;;4911292;29;20463;-75
2022/10/07 08:30:25;;;;;;;8.33;3.77;;;15.10;99.90;;;;;;4910708;29;20871;-75
2022/10/07 08:32:53;;;;;;;7.63;4.47;;;15.20;99.90;;;;;;4911511;29;20468;-74
2022/10/07 08:35:20;;;;;;;7.40;3.93;;;15.30;99.90;;;;;;4910556;29;20458;-75
2022/10/07 08:37:46;;;;;;;7.60;4.00;;;15.40;99.90;;;;;;4910673;29;20697;-75
2022/10/07 08:40:16;;;;;;;5.30;3.60;;;15.40;99.90;;;;;;4911249;29;20502;-75
2022/10/07 08:42:46;;;;;;;7.07;3.50;;;15.50;99.90;;;;;;4911245;29;20470;-75
2022/10/07 08:45:20;;;;;;;9.50;4.00;;;15.60;99.90;;;;;;4910391;29;20833;-74
2022/10/07 08:47:48;;;;;;;9.00;3.57;;;15.70;99.90;;;;;;4910829;29;20446;-75
2022/10/07 08:50:18;;;;;;;4.87;2.90;;;15.80;99.90;;;;;;4910468;29;20629;-75
2022/10/07 08:52:50;;;;;;;8.17;3.23;;;16.00;99.90;;;;;;4910912;29;20447;-75
2022/10/07 08:55:23;;;;;;;9.47;3.20;;;16.10;99.90;;;;;;4909918;29;21050;-75
2022/10/07 08:58:08;;;;;;;5.17;3.00;;;16.30;99.90;;;;;;4911398;29;20474;-75
2022/10/07 09:00:44;;;;;;;5.23;2.93;;;16.50;99.90;;;;;;4910653;29;21026;-75
2022/10/07 09:03:24;;;;;;;8.53;3.80;;;16.60;99.90;;;;;;4911206;29;20459;-75
2022/10/07 09:05:55;;;;;;;7.00;3.07;;;16.70;99.90;;;;;;4910361;29;20467;-75
2022/10/07 09:08:28;;;;;;;4.67;3.47;;;16.80;99.90;;;;;;4911110;29;20519;-75
2022/10/07 09:10:59;;;;;;;7.10;4.07;;;16.80;99.90;;;;;;4910770;29;20854;-75
2022/10/07 09:13:30;;;;;;;5.87;3.47;;;16.90;99.90;;;;;;4911262;29;20467;-75
2022/10/07 09:15:59;;;;;;;4.50;2.97;;;17.10;99.90;;;;;;4910031;29;20450;-75
2022/10/07 09:18:32;;;;;;;7.67;3.20;;;17.40;99.90;;;;;;4910596;29;20474;-75
2022/10/07 09:21:04;;;;;;;6.23;3.93;;;17.60;99.90;;;;;;4910553;29;20503;-75
2022/10/07 09:23:34;;;;;;;5.17;3.50;;;18.00;99.90;;;;;;4910697;29;20463;-75
2022/10/07 09:26:01;;;;;;;5.37;2.90;;;18.40;99.90;;;;;;4910055;29;20952;-75
2022/10/07 09:28:30;;;;;;;8.87;3.40;;;18.80;99.90;;;;;;4910867;29;20882;-75
2022/10/07 09:30:59;;;;;;;7.73;3.27;;;19.10;99.90;;;;;;4910331;29;20487;-72
2022/10/07 09:33:28;;;;;;;7.57;3.60;;;19.20;99.90;;;;;;4910564;29;20467;-72
2022/10/07 09:35:57;;;;;;;16.10;3.40;;;19.30;99.90;;;;;;4909854;29;20474;-72
2022/10/07 09:38:32;;;;;;;11.80;3.30;;;19.40;99.90;;;;;;4910531;29;20474;-72
2022/10/07 09:41:18;;;;;;;5.30;3.43;;;19.40;99.90;;;;;;4910549;29;20506;-72
2022/10/07 09:43:58;;;;;;;4.27;2.73;;;19.70;99.90;;;;;;4910288;29;21002;-72
2022/10/07 09:46:31;;;;;;;4.77;2.97;;;20.00;99.90;;;;;;4910350;29;20451;-72
2022/10/07 09:49:03;;;;;;;6.17;2.93;;;20.00;99.90;;;;;;4910460;29;20816;-72
2022/10/07 09:51:31;;;;;;;6.10;3.60;;;20.10;99.90;;;;;;4910272;29;20563;-72
2022/10/07 09:54:01;;;;;;;7.53;3.40;;;20.10;99.90;;;;;;4909562;29;20463;-72
2022/10/07 09:56:39;;;;;;;4.13;3.13;;;20.00;99.90;;;;;;4910223;29;20444;-72
2022/10/07 09:59:25;;;;;;;6.83;3.47;;;20.00;99.90;;;;;;4910009;29;20470;-72
2022/10/07 10:01:53;;;;;;;5.60;3.27;;;20.10;99.90;;;;;;4909984;29;20503;-72
2022/10/07 10:04:24;;;;;;;8.30;3.30;;;20.10;99.90;;;;;;4909694;29;20470;-71
2022/10/07 10:06:52;;;;;;;7.60;3.90;;;20.00;99.90;;;;;;4909149;29;20467;-71
2022/10/07 10:09:23;;;;;;;7.60;3.07;;;19.80;99.90;;;;;;4909781;29;20459;-71
2022/10/07 10:12:12;;;;;;;5.30;3.03;;;19.70;99.90;;;;;;4910094;29;20494;-72
2022/10/07 10:14:50;;;;;;;5.00;3.50;;;19.90;99.90;;;;;;4909483;29;20451;-72
2022/10/07 10:17:29;;;;;;;5.20;3.20;;;20.20;99.90;;;;;;4910019;29;20494;-72
2022/10/07 10:20:16;;;;;;;4.87;3.40;;;20.60;99.90;;;;;;4909619;29;20463;-72
2022/10/07 10:22:44;;;;;;;8.20;4.30;;;21.30;99.90;;;;;;4909868;29;20522;-77
2022/10/07 10:28:03;;;;;;;2.63;2.33;;;21.40;99.90;;;;;;4909428;29;20557;-77
2022/10/07 10:30:31;;;;;;;5.90;3.13;;;21.60;99.90;;;;;;4909851;29;20543;-76
2022/10/07 10:33:13;;;;;;;5.37;3.73;;;21.70;99.90;;;;;;4909425;29;20983;-76
2022/10/07 10:35:50;;;;;;;8.53;3.13;;;21.80;99.90;;;;;;4909299;29;20554;-77
2022/10/07 10:38:33;;;;;;;8.37;3.40;;;21.70;99.90;;;;;;4909848;29;20444;-76
2022/10/07 10:41:09;;;;;;;10.17;3.20;;;21.60;99.90;;;;;;4909996;29;20513;-76
2022/10/07 10:43:52;;;;;;;12.10;3.63;;;21.60;99.90;;;;;;4909640;29;20469;-77
2022/10/07 10:46:35;;;;;;;6.90;3.30;;;21.60;99.90;;;;;;4909133;29;20463;-76
2022/10/07 10:49:10;;;;;;;3.30;2.80;;;21.70;99.90;;;;;;4909302;29;21118;-76
2022/10/07 10:51:55;;;;;;;6.63;3.60;;;22.40;99.90;;;;;;4909825;29;20479;-76
2022/10/07 10:54:31;;;;;;;5.00;3.07;;;23.00;99.90;;;;;;4908531;29;20514;-76
2022/10/07 10:57:04;;;;;;;10.57;3.10;;;23.20;99.90;;;;;;4909576;29;20451;-76
2022/10/07 10:59:48;;;;;;;8.50;2.83;;;23.00;99.90;;;;;;4909363;29;20443;-76
2022/10/07 11:02:47;;;;;;;3.23;2.77;;;22.70;99.90;;;;;;4909464;29;20503;-76
2022/10/07 11:05:16;;;;;;;7.37;3.10;;;22.50;99.90;;;;;;4908816;29;20510;-76
2022/10/07 11:07:48;;;;;;;6.30;3.13;;;22.60;99.90;;;;;;4909388;29;20826;-77
2022/10/07 11:10:21;;;;;;;4.83;3.07;;;22.80;99.90;;;;;;4909683;29;20552;-76
2022/10/07 11:12:55;;;;;;;7.30;3.10;;;23.60;99.90;;;;;;4908993;29;20979;-77
2022/10/07 11:15:26;;;;;;;4.73;3.00;;;24.40;99.90;;;;;;4908462;29;20788;-77
2022/10/07 11:17:59;;;;;;;4.87;3.10;;;24.70;99.90;;;;;;4911617;29;20435;-77
2022/10/07 11:20:31;;;;;;;5.20;2.90;;;24.60;99.90;;;;;;4913083;29;20452;-77
2022/10/07 11:23:03;;;;;;;8.97;3.30;;;24.30;99.90;;;;;;4912587;29;20493;-77
2022/10/07 11:25:36;;;;;;;7.00;3.33;;;24.10;99.90;;;;;;4911940;29;20465;-76
2022/10/07 11:28:14;;;;;;;4.20;2.60;;;23.70;99.90;;;;;;4911546;29;20455;-76
2022/10/07 11:30:48;;;;;;;5.00;2.73;;;24.00;99.90;;;;;;4912215;29;20541;-76
2022/10/07 11:33:23;;;;;;;4.63;2.80;;;24.40;99.90;;;;;;4912593;29;20462;-76
2022/10/07 11:35:54;;;;;;;3.53;2.60;;;25.00;99.90;;;;;;4953255;23;20538;-82
2022/10/07 11:38:26;;;;;;;5.00;3.10;;;25.20;99.90;;;;;;4935485;29;21010;-81
2022/10/07 11:40:57;;;;;;;6.03;2.77;;;25.50;99.90;;;;;;4935265;29;21123;-81
2022/10/07 11:43:29;;;;;;;6.53;3.20;;;25.70;99.90;;;;;;4935355;29;20503;-82
2022/10/07 11:46:00;;;;;;;5.47;2.73;;;25.80;99.90;;;;;;4917731;29;20476;-81
2022/10/07 11:48:32;;;;;;;4.97;3.63;;;25.70;99.90;;;;;;4916237;29;20463;-82
2022/10/07 11:51:03;;;;;;;7.17;3.00;;;25.70;99.90;;;;;;4916158;29;20702;-82
2022/10/07 11:53:35;;;;;;;14.20;3.87;;;25.80;99.90;;;;;;4916977;29;20448;-82
2022/10/07 11:56:12;;;;;;;10.07;3.73;;;25.90;99.90;;;;;;4916881;29;20482;-82
2022/10/07 11:58:39;;;;;;;5.73;3.30;;;25.70;99.90;;;;;;4917635;29;20519;-82
2022/10/07 12:01:31;;;;;;;5.40;3.30;;;25.70;99.90;;;;;;4916546;29;20460;-82
2022/10/07 12:04:24;;;;;;;5.53;3.10;;;25.50;99.90;;;;;;4915419;29;20456;-82
2022/10/07 12:07:41;;;;;;;5.73;3.60;;;25.20;99.90;;;;;;4914775;29;20460;-82
2022/10/07 12:10:31;;;;;;;9.33;4.00;;;25.10;99.90;;;;;;4856556;29;20475;-82
2022/10/07 12:13:40;;;;;;;6.33;3.23;;;25.00;99.90;;;;;;4848043;29;20502;-81
2022/10/07 12:16:41;;;;;;;7.10;3.20;;;24.90;99.90;;;;;;4909864;29;21084;-83
2022/10/07 12:19:18;;;;;;;5.60;3.67;;;25.10;99.90;;;;;;4913727;29;20452;-82
2022/10/07 12:22:14;;;;;;;5.30;3.70;;;25.20;99.90;;;;;;4914851;29;20495;-82
2022/10/07 12:24:45;;;;;;;7.77;3.80;;;25.30;99.90;;;;;;4918430;29;20488;-83
2022/10/07 12:27:16;;;;;;;7.47;4.00;;;25.20;99.90;;;;;;4920074;29;20464;-84
2022/10/07 12:29:52;;;;;;;5.60;4.30;;;25.00;99.90;;;;;;4914311;29;20524;-84
2022/10/07 12:32:55;;;;;;;6.90;4.37;;;25.00;99.90;;;;;;4915485;29;20446;-82
2022/10/07 12:35:47;;;;;;;10.33;4.87;;;24.80;99.90;;;;;;4915299;29;21055;-83
2022/10/07 12:38:25;;;;;;;9.53;5.37;;;24.20;99.90;;;;;;4912112;29;20435;-83
2022/10/07 12:41:24;;;;;;;11.53;5.10;;;24.20;99.90;;;;;;4912961;29;20448;-84
2022/10/07 12:43:58;;;;;;;10.40;4.77;;;24.30;99.90;;;;;;4914648;29;20444;-83
2022/10/07 12:46:33;;;;;;;6.97;4.60;;;24.60;99.90;;;;;;4913721;29;20463;-80
2022/10/07 12:49:04;;;;;;;9.10;4.40;;;24.50;99.90;;;;;;4914192;29;20474;-83
2022/10/07 12:51:38;;;;;;;7.40;5.43;;;24.40;99.90;;;;;;4912372;29;20468;-83
2022/10/07 12:54:12;;;;;;;9.40;5.87;;;23.90;99.90;;;;;;4911802;29;20507;-82
2022/10/07 12:56:43;;;;;;;8.80;5.20;;;23.60;99.90;;;;;;4914156;29;20475;-83
2022/10/07 12:59:47;;;;;;;8.33;5.40;;;23.50;99.90;;;;;;4908865;29;20649;-84
2022/10/07 13:02:55;;;;;;;8.00;5.00;;;23.40;99.90;;;;;;4911723;29;20526;-83
2022/10/07 13:06:01;;;;;;;9.10;5.43;;;23.20;99.90;;;;;;4910405;29;20757;-83
2022/10/07 13:08:55;;;;;;;8.57;6.20;;;23.20;99.90;;;;;;4911395;29;20492;-84
2022/10/07 13:11:53;;;;;;;7.27;5.47;;;23.30;99.90;;;;;;4912267;29;20512;-83
2022/10/07 13:14:27;;;;;;;8.17;6.17;;;23.40;99.90;;;;;;4909907;29;20547;-84
2022/10/07 13:17:00;;;;;;;8.33;6.20;;;23.30;99.90;;;;;;4910141;29;20552;-84
2022/10/07 13:19:36;;;;;;;17.40;7.73;;;23.30;99.90;;;;;;4911951;29;20507;-84
2022/10/07 13:22:10;;;;;;;10.10;7.40;;;23.40;99.90;;;;;;4912184;29;20488;-84
2022/10/07 13:24:40;;;;;;;10.03;7.10;;;23.40;99.90;;;;;;4911547;29;20560;-84
2022/10/07 13:27:08;;;;;;;10.00;6.90;;;23.20;99.90;;;;;;4911159;29;20528;-83
2022/10/07 13:29:37;;;;;;;8.97;6.80;;;23.10;99.90;;;;;;4911781;29;20455;-84
2022/10/07 13:32:07;;;;;;;13.93;6.17;;;23.10;99.90;;;;;;4910967;29;20940;-84
2022/10/07 13:34:35;;;;;;;10.00;5.70;;;23.20;99.90;;;;;;4910338;29;20659;-85
2022/10/07 13:37:02;;;;;;;8.67;6.30;;;23.30;99.90;;;;;;4914402;29;20456;-84
2022/10/07 13:39:29;;;;;;;6.87;5.53;;;23.60;99.90;;;;;;4913024;29;21035;-84
2022/10/07 13:41:59;;;;;;;9.10;6.00;;;23.80;99.90;;;;;;4913530;29;20528;-84
2022/10/07 13:44:29;;;;;;;10.73;6.10;;;24.00;99.90;;;;;;4912933;29;20476;-84
2022/10/07 13:46:58;;;;;;;11.80;5.30;;;24.10;99.90;;;;;;4911807;29;20554;-85
2022/10/07 13:49:27;;;;;;;6.30;4.53;;;24.20;99.90;;;;;;4912165;29;20460;-85
2022/10/07 13:51:59;;;;;;;7.90;5.10;;;24.20;99.90;;;;;;4912584;29;20555;-85
2022/10/07 13:54:28;;;;;;;10.83;5.40;;;24.30;99.90;;;;;;4912282;29;20492;-85
2022/10/07 13:56:56;;;;;;;9.43;5.87;;;24.40;99.90;;;;;;4913679;29;20552;-85
2022/10/07 13:59:23;;;;;;;10.50;6.20;;;24.50;99.90;;;;;;4913581;29;20546;-85
2022/10/07 14:01:52;;;;;;;6.47;5.83;;;24.60;99.90;;;;;;4912920;29;20590;-82
2022/10/07 14:04:23;;;;;;;6.70;5.10;;;24.50;99.90;;;;;;4913197;29;20547;-82
2022/10/07 14:06:54;;;;;;;8.83;5.23;;;24.50;99.90;;;;;;4913536;29;20456;-82
2022/10/07 14:09:33;;;;;;;9.97;5.53;;;24.50;99.90;;;;;;4913777;29;20472;-84
2022/10/07 14:12:04;;;;;;;7.07;5.43;;;24.60;99.90;;;;;;4913620;29;20512;-84
2022/10/07 14:14:35;;;;;;;9.60;5.80;;;24.60;99.90;;;;;;4912567;29;20879;-84
2022/10/07 14:17:09;;;;;;;7.17;5.37;;;24.60;99.90;;;;;;4914614;29;20511;-84
2022/10/07 14:19:38;;;;;;;7.70;5.20;;;24.60;99.90;;;;;;4913381;29;20495;-85
2022/10/07 14:22:17;;;;;;;6.97;5.60;;;24.60;99.90;;;;;;4914018;29;20488;-85
2022/10/07 14:24:53;;;;;;;8.60;4.80;;;24.30;99.90;;;;;;4914378;29;20480;-84
2022/10/07 14:27:52;;;;;;;9.17;6.10;;;24.30;99.90;;;;;;4915068;29;20824;-84
2022/10/07 14:36:25;;;;;;;7.20;4.83;;;24.40;99.90;;;;;;4914936;29;20439;-84
2022/10/07 14:38:56;;;;;;;6.53;5.00;;;24.40;99.90;;;;;;4914451;29;20460;-84
2022/10/07 14:41:27;;;;;;;5.70;5.00;;;24.40;99.90;;;;;;4914611;29;20457;-84
2022/10/07 14:43:58;;;;;;;7.40;4.80;;;24.40;99.90;;;;;;4914818;29;20564;-83
2022/10/07 14:46:27;;;;;;;8.87;5.33;;;24.30;99.90;;;;;;4913941;29;20464;-83
2022/10/07 14:48:54;;;;;;;9.00;5.37;;;24.20;99.90;;;;;;4913618;29;20462;-83
2022/10/07 14:51:24;;;;;;;9.07;5.23;;;24.00;99.90;;;;;;4913847;29;20551;-83
2022/10/07 14:53:53;;;;;;;8.30;4.87;;;23.70;99.90;;;;;;4914904;29;20468;-83
2022/10/07 14:56:25;;;;;;;8.40;5.50;;;23.70;99.90;;;;;;4913074;29;20495;-83
2022/10/07 14:58:52;;;;;;;11.17;6.10;;;23.50;99.90;;;;;;4914750;29;20517;-83
2022/10/07 15:01:20;;;;;;;6.00;4.10;;;23.40;99.90;;;;;;4914042;29;20523;-83
2022/10/07 15:03:47;;;;;;;9.90;5.10;;;23.40;99.90;;;;;;4914564;29;20502;-82
2022/10/07 15:06:15;;;;;;;8.30;5.47;;;23.50;99.90;;;;;;4914747;29;20464;-82
2022/10/07 15:08:42;;;;;;;6.27;5.47;;;23.50;99.90;;;;;;4913924;29;20539;-83
2022/10/07 15:11:11;;;;;;;7.07;4.87;;;23.40;99.90;;;;;;4914317;29;20467;-83
2022/10/07 15:13:40;;;;;;;6.53;4.57;;;23.50;99.90;;;;;;4915611;29;20528;-83
2022/10/07 15:16:13;;;;;;;13.00;5.40;;;23.60;99.90;;;;;;4915293;29;20490;-83
2022/10/07 15:18:40;;;;;;;5.50;4.77;;;23.70;99.90;;;;;;4915647;29;20463;-83
2022/10/07 15:21:07;;;;;;;8.60;5.03;;;23.70;99.90;;;;;;4916036;29;20463;-83
2022/10/07 15:23:34;;;;;;;6.17;4.60;;;23.80;99.90;;;;;;4917964;29;20480;-83
2022/10/07 15:26:01;;;;;;;9.07;4.73;;;23.90;99.90;;;;;;4921134;29;20475;-83
2022/10/07 15:28:29;;;;;;;6.30;4.63;;;24.00;99.90;;;;;;4921446;29;20461;-83
2022/10/07 15:31:03;;;;;;;5.67;5.10;;;24.20;99.90;;;;;;4921383;29;20480;-83
2022/10/07 15:33:32;;;;;;;8.13;5.37;;;23.90;99.90;;;;;;4921319;29;20484;-82
2022/10/07 15:35:59;;;;;;;5.67;4.50;;;23.90;99.90;;;;;;4920005;29;20479;-83
2022/10/07 15:38:27;;;;;;;8.00;4.93;;;23.80;99.90;;;;;;4913331;29;20460;-83
2022/10/07 15:40:56;;;;;;;11.07;4.83;;;23.70;99.90;;;;;;4912913;29;20532;-83
2022/10/07 15:43:22;;;;;;;11.33;4.97;;;23.70;99.90;;;;;;4913195;29;20495;-83
2022/10/07 15:45:50;;;;;;;8.07;4.37;;;23.90;99.90;;;;;;4913327;29;20548;-83
2022/10/07 15:48:21;;;;;;;7.13;5.37;;;23.70;99.90;;;;;;4913812;29;20567;-83
2022/10/07 15:50:50;;;;;;;7.10;4.90;;;23.60;99.90;;;;;;4915715;29;20448;-83
2022/10/07 15:53:18;;;;;;;6.73;5.00;;;23.40;99.90;;;;;;4914590;29;21086;-83
2022/10/07 15:55:53;;;;;;;6.53;4.97;;;23.30;99.90;;;;;;4912199;29;20519;-82
2022/10/07 15:58:20;;;;;;;6.83;5.67;;;23.10;99.90;;;;;;4912014;29;20469;-82
2022/10/07 16:00:58;;;;;;;11.33;5.20;;;22.90;99.90;;;;;;4909546;29;20468;-82
2022/10/07 16:03:26;;;;;;;10.40;5.50;;;22.70;99.90;;;;;;4907520;29;20482;-83
2022/10/07 16:05:59;;;;;;;11.37;5.90;;;22.50;99.90;;;;;;4911356;29;20486;-82
2022/10/07 16:08:26;;;;;;;11.30;5.80;;;22.30;99.90;;;;;;4912015;29;20542;-82
2022/10/07 16:10:52;;;;;;;7.50;5.37;;;22.10;99.90;;;;;;4911354;29;20448;-83
2022/10/07 16:13:19;;;;;;;7.47;5.90;;;22.00;99.90;;;;;;4909901;29;20457;-83
2022/10/07 16:16:01;;;;;;;5.50;5.00;;;22.00;99.90;;;;;;4911019;29;20484;-82
2022/10/07 16:18:29;;;;;;;8.60;5.67;;;21.80;99.90;;;;;;4911712;29;20451;-82
2022/10/07 16:20:56;;;;;;;9.37;5.60;;;21.70;99.90;;;;;;4910188;29;20519;-82
2022/10/07 16:23:23;;;;;;;10.30;5.90;;;21.60;99.90;;;;;;4910575;29;20496;-82
2022/10/07 16:25:50;;;;;;;8.50;5.70;;;21.50;99.90;;;;;;4908501;29;20834;-82
2022/10/07 16:31:01;;;;;;;7.73;5.37;;;21.30;99.90;;;;;;4908571;29;20462;-82
2022/10/07 16:33:29;;;;;;;10.27;6.37;;;21.20;99.90;;;;;;4909128;29;20539;-83
2022/10/07 16:35:56;;;;;;;10.03;5.90;;;21.20;99.90;;;;;;4907967;29;20498;-83
2022/10/07 16:38:22;;;;;;;7.20;5.67;;;21.10;99.90;;;;;;4908566;29;20519;-83
2022/10/07 16:40:53;;;;;;;10.40;5.90;;;20.90;99.90;;;;;;4909516;29;20466;-83
2022/10/07 16:43:20;;;;;;;6.13;5.53;;;20.90;99.90;;;;;;4910752;29;20499;-82
2022/10/07 16:45:47;;;;;;;7.40;5.10;;;20.90;99.90;;;;;;4911448;29;20551;-82
2022/10/07 16:48:16;;;;;;;8.67;5.40;;;20.80;99.90;;;;;;4909623;29;20458;-82
2022/10/07 16:50:47;;;;;;;8.40;5.77;;;20.70;99.90;;;;;;4908347;29;20497;-83
2022/10/07 16:53:14;;;;;;;7.30;5.40;;;20.60;99.90;;;;;;4908174;29;20444;-83
2022/10/07 16:55:41;;;;;;;7.70;5.90;;;20.60;99.90;;;;;;4908977;29;20484;-83
2022/10/07 16:58:08;;;;;;;9.13;6.77;;;20.50;99.90;;;;;;4907852;29;20464;-83
2022/10/07 17:00:35;;;;;;;10.97;6.50;;;20.50;99.90;;;;;;4909037;29;20453;-83
2022/10/07 17:03:02;;;;;;;9.03;5.60;;;20.30;99.90;;;;;;4908681;29;21155;-82
2022/10/07 17:05:28;;;;;;;6.77;5.60;;;20.30;99.90;;;;;;4908675;29;20480;-82
2022/10/07 17:07:57;;;;;;;13.47;5.83;;;20.10;99.90;;;;;;4908434;29;20468;-82
2022/10/07 17:10:24;;;;;;;10.63;6.60;;;20.00;99.90;;;;;;4910044;29;20528;-82
2022/10/07 17:12:51;;;;;;;10.13;7.20;;;19.90;99.90;;;;;;4909506;29;20460;-82
2022/10/07 17:15:18;;;;;;;12.50;7.90;;;19.90;99.90;;;;;;4906594;29;20472;-82
2022/10/07 17:17:44;;;;;;;13.80;8.07;;;19.80;99.90;;;;;;4907853;29;20470;-82
2022/10/07 17:20:11;;;;;;;11.37;7.50;;;19.70;99.90;;;;;;4908231;29;20551;-82
2022/10/07 17:22:39;;;;;;;13.03;7.67;;;19.60;99.90;;;;;;4901451;29;20961;-76
2022/10/07 17:25:07;;;;;;;10.50;7.50;;;19.50;99.90;;;;;;4897803;29;20488;-76